sensor_id;sensor_type;location;lat;lon;timestamp;temperature;humidity
3504;DHT22;1766;53.490;10.174;2023-04-24T00:01:47;19.90;44.30
3504;DHT22;1766;53.490;10.174;2023-04-24T00:03:50;19.90;44.40
3504;DHT22;1766;53.490;10.174;2023-04-24T00:05:52;19.90;44.60
3504;DHT22;1766;53.490;10.174;2023-04-24T00:07:55;19.80;44.50
3504;DHT22;1766;53.490;10.174;2023-04-24T00:09:58;19.80;44.70
3504;DHT22;1766;53.490;10.174;2023-04-24T00:12:00;19.80;44.80
3504;DHT22;1766;53.490;10.174;2023-04-24T00:14:04;19.80;44.80
3504;DHT22;1766;53.490;10.174;2023-04-24T00:16:06;19.80;44.90
3504;DHT22;1766;53.490;10.174;2023-04-24T00:18:08;19.80;45.50
3504;DHT22;1766;53.490;10.174;2023-04-24T00:20:11;19.70;45.10
3504;DHT22;1766;53.490;10.174;2023-04-24T00:22:13;19.70;45.00
3504;DHT22;1766;53.490;10.174;2023-04-24T00:24:16;19.70;45.20
3504;DHT22;1766;53.490;10.174;2023-04-24T00:26:18;19.70;45.20
3504;DHT22;1766;53.490;10.174;2023-04-24T00:28:20;19.70;45.20
3504;DHT22;1766;53.490;10.174;2023-04-24T00:30:24;19.70;45.40
3504;DHT22;1766;53.490;10.174;2023-04-24T00:32:26;19.60;45.30
3504;DHT22;1766;53.490;10.174;2023-04-24T00:34:28;19.60;45.50
3504;DHT22;1766;53.490;10.174;2023-04-24T00:36:32;19.50;45.50
3504;DHT22;1766;53.490;10.174;2023-04-24T00:38:34;19.50;45.60
3504;DHT22;1766;53.490;10.174;2023-04-24T00:40:38;19.50;45.70
3504;DHT22;1766;53.490;10.174;2023-04-24T00:42:40;19.50;45.80
3504;DHT22;1766;53.490;10.174;2023-04-24T00:44:42;19.50;45.80
3504;DHT22;1766;53.490;10.174;2023-04-24T00:46:45;19.50;45.80
3504;DHT22;1766;53.490;10.174;2023-04-24T00:48:47;19.40;46.40
3504;DHT22;1766;53.490;10.174;2023-04-24T00:50:49;19.40;45.80
3504;DHT22;1766;53.490;10.174;2023-04-24T00:52:51;19.40;45.90
3504;DHT22;1766;53.490;10.174;2023-04-24T00:54:53;19.40;45.80
3504;DHT22;1766;53.490;10.174;2023-04-24T00:56:56;19.30;45.90
3504;DHT22;1766;53.490;10.174;2023-04-24T00:58:58;19.30;46.10
3504;DHT22;1766;53.490;10.174;2023-04-24T01:01:01;19.30;46.20
3504;DHT22;1766;53.490;10.174;2023-04-24T01:03:07;19.30;46.40
3504;DHT22;1766;53.490;10.174;2023-04-24T01:05:12;19.20;46.40
3504;DHT22;1766;53.490;10.174;2023-04-24T01:07:15;19.20;46.50
3504;DHT22;1766;53.490;10.174;2023-04-24T01:09:18;19.20;46.50
3504;DHT22;1766;53.490;10.174;2023-04-24T01:11:21;19.20;46.60
3504;DHT22;1766;53.490;10.174;2023-04-24T01:13:24;19.20;46.60
3504;DHT22;1766;53.490;10.174;2023-04-24T01:15:26;19.20;46.50
3504;DHT22;1766;53.490;10.174;2023-04-24T01:17:28;19.10;46.50
3504;DHT22;1766;53.490;10.174;2023-04-24T01:19:30;19.10;46.60
3504;DHT22;1766;53.490;10.174;2023-04-24T01:21:33;19.00;46.60
3504;DHT22;1766;53.490;10.174;2023-04-24T01:23:39;19.00;46.80
3504;DHT22;1766;53.490;10.174;2023-04-24T01:25:41;19.00;46.70
3504;DHT22;1766;53.490;10.174;2023-04-24T01:27:43;19.10;47.10
3504;DHT22;1766;53.490;10.174;2023-04-24T01:29:46;19.00;46.80
3504;DHT22;1766;53.490;10.174;2023-04-24T01:31:50;18.30;46.10
3504;DHT22;1766;53.490;10.174;2023-04-24T01:33:52;19.00;46.80
3504;DHT22;1766;53.490;10.174;2023-04-24T01:35:55;19.00;46.90
3504;DHT22;1766;53.490;10.174;2023-04-24T01:37:58;19.00;46.90
3504;DHT22;1766;53.490;10.174;2023-04-24T01:40:01;18.90;46.70
3504;DHT22;1766;53.490;10.174;2023-04-24T01:42:05;18.80;46.70
3504;DHT22;1766;53.490;10.174;2023-04-24T01:44:07;18.90;47.00
3504;DHT22;1766;53.490;10.174;2023-04-24T01:46:09;18.80;47.00
3504;DHT22;1766;53.490;10.174;2023-04-24T01:48:12;18.90;47.20
3504;DHT22;1766;53.490;10.174;2023-04-24T01:50:14;18.80;47.10
3504;DHT22;1766;53.490;10.174;2023-04-24T01:52:16;18.90;47.10
3504;DHT22;1766;53.490;10.174;2023-04-24T01:54:19;18.80;47.10
3504;DHT22;1766;53.490;10.174;2023-04-24T01:56:22;18.80;47.00
3504;DHT22;1766;53.490;10.174;2023-04-24T01:58:24;18.80;46.90
3504;DHT22;1766;53.490;10.174;2023-04-24T02:00:26;18.80;46.90
3504;DHT22;1766;53.490;10.174;2023-04-24T02:02:28;18.70;46.80
3504;DHT22;1766;53.490;10.174;2023-04-24T02:04:30;18.70;46.60
3504;DHT22;1766;53.490;10.174;2023-04-24T02:06:32;18.60;46.60
3504;DHT22;1766;53.490;10.174;2023-04-24T02:08:34;18.60;46.60
3504;DHT22;1766;53.490;10.174;2023-04-24T02:10:36;18.60;46.70
3504;DHT22;1766;53.490;10.174;2023-04-24T02:12:39;18.50;46.60
3504;DHT22;1766;53.490;10.174;2023-04-24T02:14:41;18.50;46.60
3504;DHT22;1766;53.490;10.174;2023-04-24T02:16:43;18.40;46.60
3504;DHT22;1766;53.490;10.174;2023-04-24T02:18:46;18.40;46.70
3504;DHT22;1766;53.490;10.174;2023-04-24T02:20:47;18.30;46.80
3504;DHT22;1766;53.490;10.174;2023-04-24T02:22:49;18.30;47.00
3504;DHT22;1766;53.490;10.174;2023-04-24T02:24:51;18.20;47.10
3504;DHT22;1766;53.490;10.174;2023-04-24T02:26:53;18.10;47.10
3504;DHT22;1766;53.490;10.174;2023-04-24T02:28:56;18.10;47.00
3504;DHT22;1766;53.490;10.174;2023-04-24T02:30:58;18.10;47.00
3504;DHT22;1766;53.490;10.174;2023-04-24T02:33:00;18.10;47.10
3504;DHT22;1766;53.490;10.174;2023-04-24T02:35:02;18.10;47.20
3504;DHT22;1766;53.490;10.174;2023-04-24T02:37:04;18.10;47.40
3504;DHT22;1766;53.490;10.174;2023-04-24T02:39:06;18.00;47.40
3504;DHT22;1766;53.490;10.174;2023-04-24T02:41:07;18.00;47.40
3504;DHT22;1766;53.490;10.174;2023-04-24T02:43:10;18.00;47.20
3504;DHT22;1766;53.490;10.174;2023-04-24T02:45:13;18.00;47.30
3504;DHT22;1766;53.490;10.174;2023-04-24T02:47:15;18.00;47.30
3504;DHT22;1766;53.490;10.174;2023-04-24T02:49:16;18.00;47.30
3504;DHT22;1766;53.490;10.174;2023-04-24T02:51:18;18.00;47.40
3504;DHT22;1766;53.490;10.174;2023-04-24T02:53:20;17.90;47.40
3504;DHT22;1766;53.490;10.174;2023-04-24T02:55:22;17.90;47.50
3504;DHT22;1766;53.490;10.174;2023-04-24T02:57:23;18.00;47.60
3504;DHT22;1766;53.490;10.174;2023-04-24T02:59:25;17.90;47.50
3504;DHT22;1766;53.490;10.174;2023-04-24T03:01:30;17.90;47.50
3504;DHT22;1766;53.490;10.174;2023-04-24T03:03:32;17.90;47.50
3504;DHT22;1766;53.490;10.174;2023-04-24T03:05:34;17.90;47.50
3504;DHT22;1766;53.490;10.174;2023-04-24T03:07:36;17.90;47.50
3504;DHT22;1766;53.490;10.174;2023-04-24T03:09:38;17.90;47.50
3504;DHT22;1766;53.490;10.174;2023-04-24T03:11:39;17.80;47.30
3504;DHT22;1766;53.490;10.174;2023-04-24T03:13:41;17.90;47.40
3504;DHT22;1766;53.490;10.174;2023-04-24T03:15:43;17.90;47.40
3504;DHT22;1766;53.490;10.174;2023-04-24T03:17:48;17.90;47.40
3504;DHT22;1766;53.490;10.174;2023-04-24T03:19:49;17.80;47.40
3504;DHT22;1766;53.490;10.174;2023-04-24T03:21:51;17.90;47.40
3504;DHT22;1766;53.490;10.174;2023-04-24T03:23:53;17.80;47.20
3504;DHT22;1766;53.490;10.174;2023-04-24T03:25:55;17.80;47.10
3504;DHT22;1766;53.490;10.174;2023-04-24T03:27:57;17.80;47.10
3504;DHT22;1766;53.490;10.174;2023-04-24T03:29:59;17.70;47.20
3504;DHT22;1766;53.490;10.174;2023-04-24T03:32:01;17.70;47.10
3504;DHT22;1766;53.490;10.174;2023-04-24T03:34:04;17.70;47.00
3504;DHT22;1766;53.490;10.174;2023-04-24T03:36:06;17.70;47.00
3504;DHT22;1766;53.490;10.174;2023-04-24T03:38:08;17.80;47.10
3504;DHT22;1766;53.490;10.174;2023-04-24T03:40:11;17.70;46.90
3504;DHT22;1766;53.490;10.174;2023-04-24T03:42:12;17.70;47.00
3504;DHT22;1766;53.490;10.174;2023-04-24T03:44:14;17.70;46.80
3504;DHT22;1766;53.490;10.174;2023-04-24T03:46:16;17.70;46.90
3504;DHT22;1766;53.490;10.174;2023-04-24T03:48:18;17.70;46.90
3504;DHT22;1766;53.490;10.174;2023-04-24T03:50:21;17.70;46.80
3504;DHT22;1766;53.490;10.174;2023-04-24T03:52:23;17.60;46.70
3504;DHT22;1766;53.490;10.174;2023-04-24T03:54:25;17.60;46.70
3504;DHT22;1766;53.490;10.174;2023-04-24T03:56:26;17.60;46.60
3504;DHT22;1766;53.490;10.174;2023-04-24T03:58:28;17.60;46.50
3504;DHT22;1766;53.490;10.174;2023-04-24T04:00:30;17.60;46.30
3504;DHT22;1766;53.490;10.174;2023-04-24T04:02:33;17.50;46.30
3504;DHT22;1766;53.490;10.174;2023-04-24T04:04:35;17.60;46.40
3504;DHT22;1766;53.490;10.174;2023-04-24T04:06:38;17.50;46.20
3504;DHT22;1766;53.490;10.174;2023-04-24T04:08:40;17.50;46.20
3504;DHT22;1766;53.490;10.174;2023-04-24T04:10:41;17.50;46.20
3504;DHT22;1766;53.490;10.174;2023-04-24T04:12:43;17.50;46.20
3504;DHT22;1766;53.490;10.174;2023-04-24T04:14:45;17.40;46.10
3504;DHT22;1766;53.490;10.174;2023-04-24T04:16:46;17.40;46.00
3504;DHT22;1766;53.490;10.174;2023-04-24T04:18:48;17.30;45.90
3504;DHT22;1766;53.490;10.174;2023-04-24T04:20:50;17.30;46.50
3504;DHT22;1766;53.490;10.174;2023-04-24T04:22:53;17.30;45.80
3504;DHT22;1766;53.490;10.174;2023-04-24T04:24:55;17.30;45.80
3504;DHT22;1766;53.490;10.174;2023-04-24T04:26:57;17.30;45.80
3504;DHT22;1766;53.490;10.174;2023-04-24T04:29:00;17.30;45.70
3504;DHT22;1766;53.490;10.174;2023-04-24T04:31:03;17.30;45.80
3504;DHT22;1766;53.490;10.174;2023-04-24T04:33:05;17.20;45.60
3504;DHT22;1766;53.490;10.174;2023-04-24T04:35:08;17.20;45.60
3504;DHT22;1766;53.490;10.174;2023-04-24T04:37:10;17.20;45.50
3504;DHT22;1766;53.490;10.174;2023-04-24T05:22:38;17.50;44.80
3504;DHT22;1766;53.490;10.174;2023-04-24T05:24:40;17.50;44.80
3504;DHT22;1766;53.490;10.174;2023-04-24T05:26:42;17.50;44.70
3504;DHT22;1766;53.490;10.174;2023-04-24T05:28:44;17.60;44.60
3504;DHT22;1766;53.490;10.174;2023-04-24T05:30:46;17.60;44.60
3504;DHT22;1766;53.490;10.174;2023-04-24T05:32:48;17.60;44.50
3504;DHT22;1766;53.490;10.174;2023-04-24T05:34:49;17.60;44.40
3504;DHT22;1766;53.490;10.174;2023-04-24T05:36:52;17.60;44.40
3504;DHT22;1766;53.490;10.174;2023-04-24T05:38:55;17.60;44.40
3504;DHT22;1766;53.490;10.174;2023-04-24T05:40:57;17.70;44.50
3504;DHT22;1766;53.490;10.174;2023-04-24T05:42:58;17.70;44.40
3504;DHT22;1766;53.490;10.174;2023-04-24T05:45:00;17.80;44.40
3504;DHT22;1766;53.490;10.174;2023-04-24T05:47:03;17.80;44.40
3504;DHT22;1766;53.490;10.174;2023-04-24T05:49:05;17.80;44.40
3504;DHT22;1766;53.490;10.174;2023-04-24T05:51:06;17.80;44.40
3504;DHT22;1766;53.490;10.174;2023-04-24T05:53:08;17.90;44.30
3504;DHT22;1766;53.490;10.174;2023-04-24T05:55:12;18.00;44.30
3504;DHT22;1766;53.490;10.174;2023-04-24T05:57:14;18.00;44.10
3504;DHT22;1766;53.490;10.174;2023-04-24T05:59:15;18.00;44.20
3504;DHT22;1766;53.490;10.174;2023-04-24T06:01:17;18.10;44.20
3504;DHT22;1766;53.490;10.174;2023-04-24T06:03:20;18.10;44.10
3504;DHT22;1766;53.490;10.174;2023-04-24T06:05:22;18.20;44.10
3504;DHT22;1766;53.490;10.174;2023-04-24T06:07:23;18.20;43.90
3504;DHT22;1766;53.490;10.174;2023-04-24T06:09:26;18.30;43.80
3504;DHT22;1766;53.490;10.174;2023-04-24T06:11:29;18.30;43.60
3504;DHT22;1766;53.490;10.174;2023-04-24T06:13:31;18.40;43.50
3504;DHT22;1766;53.490;10.174;2023-04-24T06:15:33;18.40;43.30
3504;DHT22;1766;53.490;10.174;2023-04-24T06:17:35;18.50;43.40
3504;DHT22;1766;53.490;10.174;2023-04-24T06:19:37;18.60;43.20
3504;DHT22;1766;53.490;10.174;2023-04-24T06:21:38;18.60;43.00
3504;DHT22;1766;53.490;10.174;2023-04-24T06:23:40;18.70;42.90
3504;DHT22;1766;53.490;10.174;2023-04-24T06:25:42;18.80;42.80
3504;DHT22;1766;53.490;10.174;2023-04-24T06:27:45;18.80;42.70
3504;DHT22;1766;53.490;10.174;2023-04-24T06:29:47;18.80;42.40
3504;DHT22;1766;53.490;10.174;2023-04-24T06:31:54;18.80;42.80
3504;DHT22;1766;53.490;10.174;2023-04-24T06:33:56;18.90;42.10
3504;DHT22;1766;53.490;10.174;2023-04-24T06:35:58;18.90;42.00
3504;DHT22;1766;53.490;10.174;2023-04-24T06:37:59;19.00;41.90
3504;DHT22;1766;53.490;10.174;2023-04-24T06:40:01;19.00;41.80
3504;DHT22;1766;53.490;10.174;2023-04-24T06:42:03;19.00;41.70
3504;DHT22;1766;53.490;10.174;2023-04-24T06:44:07;19.00;41.50
3504;DHT22;1766;53.490;10.174;2023-04-24T06:46:09;19.10;41.50
3504;DHT22;1766;53.490;10.174;2023-04-24T06:48:11;19.10;41.30
3504;DHT22;1766;53.490;10.174;2023-04-24T06:50:13;19.10;41.20
3504;DHT22;1766;53.490;10.174;2023-04-24T06:52:14;19.10;41.00
3504;DHT22;1766;53.490;10.174;2023-04-24T06:54:16;19.10;40.90
3504;DHT22;1766;53.490;10.174;2023-04-24T06:56:18;19.30;40.90
3504;DHT22;1766;53.490;10.174;2023-04-24T06:58:20;19.30;40.70
3504;DHT22;1766;53.490;10.174;2023-04-24T07:00:23;19.30;40.60
3504;DHT22;1766;53.490;10.174;2023-04-24T07:02:25;19.30;40.50
3504;DHT22;1766;53.490;10.174;2023-04-24T07:04:27;19.50;40.50
3504;DHT22;1766;53.490;10.174;2023-04-24T07:06:29;19.40;40.80
3504;DHT22;1766;53.490;10.174;2023-04-24T07:08:31;19.50;40.10
3504;DHT22;1766;53.490;10.174;2023-04-24T07:10:33;19.50;40.00
3504;DHT22;1766;53.490;10.174;2023-04-24T07:12:36;19.50;39.90
3504;DHT22;1766;53.490;10.174;2023-04-24T07:14:38;19.60;39.60
3504;DHT22;1766;53.490;10.174;2023-04-24T07:16:41;19.70;39.60
3504;DHT22;1766;53.490;10.174;2023-04-24T07:18:43;19.70;39.50
3504;DHT22;1766;53.490;10.174;2023-04-24T07:20:45;19.90;39.50
3504;DHT22;1766;53.490;10.174;2023-04-24T07:22:47;20.00;39.40
3504;DHT22;1766;53.490;10.174;2023-04-24T07:24:49;20.00;39.20
3504;DHT22;1766;53.490;10.174;2023-04-24T07:26:52;20.10;39.00
3504;DHT22;1766;53.490;10.174;2023-04-24T07:28:54;20.10;38.90
3504;DHT22;1766;53.490;10.174;2023-04-24T07:30:56;20.20;38.80
3504;DHT22;1766;53.490;10.174;2023-04-24T07:33:00;20.20;38.60
3504;DHT22;1766;53.490;10.174;2023-04-24T07:35:02;20.30;38.40
3504;DHT22;1766;53.490;10.174;2023-04-24T07:37:04;20.30;38.30
3504;DHT22;1766;53.490;10.174;2023-04-24T07:39:06;20.30;38.00
3504;DHT22;1766;53.490;10.174;2023-04-24T07:41:08;20.30;37.90
3504;DHT22;1766;53.490;10.174;2023-04-24T07:43:10;20.30;37.80
3504;DHT22;1766;53.490;10.174;2023-04-24T07:45:12;20.30;37.70
3504;DHT22;1766;53.490;10.174;2023-04-24T07:47:14;20.40;37.60
3504;DHT22;1766;53.490;10.174;2023-04-24T07:49:17;20.40;37.50
3504;DHT22;1766;53.490;10.174;2023-04-24T07:51:19;20.50;37.50
3504;DHT22;1766;53.490;10.174;2023-04-24T07:53:21;20.60;37.40
3504;DHT22;1766;53.490;10.174;2023-04-24T07:55:23;20.70;37.40
3504;DHT22;1766;53.490;10.174;2023-04-24T07:57:29;20.80;37.40
3504;DHT22;1766;53.490;10.174;2023-04-24T07:59:31;20.90;37.20
3504;DHT22;1766;53.490;10.174;2023-04-24T08:01:33;21.00;37.10
3504;DHT22;1766;53.490;10.174;2023-04-24T08:03:35;21.00;36.90
3504;DHT22;1766;53.490;10.174;2023-04-24T08:05:38;21.10;36.70
3504;DHT22;1766;53.490;10.174;2023-04-24T08:07:40;21.20;36.50
3504;DHT22;1766;53.490;10.174;2023-04-24T08:09:42;21.10;36.20
3504;DHT22;1766;53.490;10.174;2023-04-24T08:11:44;21.00;36.00
3504;DHT22;1766;53.490;10.174;2023-04-24T08:13:46;21.00;36.10
3504;DHT22;1766;53.490;10.174;2023-04-24T08:15:48;20.60;35.50
3504;DHT22;1766;53.490;10.174;2023-04-24T08:17:50;21.00;36.00
3504;DHT22;1766;53.490;10.174;2023-04-24T08:19:51;21.00;36.00
3504;DHT22;1766;53.490;10.174;2023-04-24T08:22:00;21.10;36.10
3504;DHT22;1766;53.490;10.174;2023-04-24T08:24:03;21.20;35.90
3504;DHT22;1766;53.490;10.174;2023-04-24T08:26:08;21.20;35.60
3504;DHT22;1766;53.490;10.174;2023-04-24T08:28:11;21.20;35.60
3504;DHT22;1766;53.490;10.174;2023-04-24T08:30:12;21.10;35.40
3504;DHT22;1766;53.490;10.174;2023-04-24T08:32:15;21.10;35.60
3504;DHT22;1766;53.490;10.174;2023-04-24T08:34:16;21.10;35.60
3504;DHT22;1766;53.490;10.174;2023-04-24T08:36:18;21.20;35.60
3504;DHT22;1766;53.490;10.174;2023-04-24T08:38:21;21.30;35.50
3504;DHT22;1766;53.490;10.174;2023-04-24T08:40:27;21.30;35.30
3504;DHT22;1766;53.490;10.174;2023-04-24T08:42:30;21.30;35.30
3504;DHT22;1766;53.490;10.174;2023-04-24T08:44:34;21.40;35.50
3504;DHT22;1766;53.490;10.174;2023-04-24T08:46:37;21.40;35.40
3504;DHT22;1766;53.490;10.174;2023-04-24T08:48:39;21.50;35.40
3504;DHT22;1766;53.490;10.174;2023-04-24T08:50:42;21.70;35.50
3504;DHT22;1766;53.490;10.174;2023-04-24T08:52:45;21.80;35.30
3504;DHT22;1766;53.490;10.174;2023-04-24T08:54:48;21.80;34.80
3504;DHT22;1766;53.490;10.174;2023-04-24T08:56:50;21.70;34.40
3504;DHT22;1766;53.490;10.174;2023-04-24T08:58:55;21.70;34.60
3504;DHT22;1766;53.490;10.174;2023-04-24T09:00:57;21.60;34.70
3504;DHT22;1766;53.490;10.174;2023-04-24T09:03:02;21.70;34.70
3504;DHT22;1766;53.490;10.174;2023-04-24T09:05:06;21.70;35.00
3504;DHT22;1766;53.490;10.174;2023-04-24T09:07:10;21.60;34.50
3504;DHT22;1766;53.490;10.174;2023-04-24T09:09:13;21.60;34.70
3504;DHT22;1766;53.490;10.174;2023-04-24T09:11:18;21.60;34.70
3504;DHT22;1766;53.490;10.174;2023-04-24T09:13:20;21.60;34.60
3504;DHT22;1766;53.490;10.174;2023-04-24T09:15:22;21.50;34.70
3504;DHT22;1766;53.490;10.174;2023-04-24T09:17:24;21.40;34.70
3504;DHT22;1766;53.490;10.174;2023-04-24T09:19:28;21.30;34.70
3504;DHT22;1766;53.490;10.174;2023-04-24T09:21:32;21.30;34.60
3504;DHT22;1766;53.490;10.174;2023-04-24T09:23:35;21.30;34.70
3504;DHT22;1766;53.490;10.174;2023-04-24T09:25:37;21.30;34.60
3504;DHT22;1766;53.490;10.174;2023-04-24T09:27:44;21.30;34.60
3504;DHT22;1766;53.490;10.174;2023-04-24T09:29:54;21.30;34.60
3504;DHT22;1766;53.490;10.174;2023-04-24T09:31:56;21.30;34.50
3504;DHT22;1766;53.490;10.174;2023-04-24T09:34:00;21.40;34.30
3504;DHT22;1766;53.490;10.174;2023-04-24T09:36:04;21.30;34.30
3504;DHT22;1766;53.490;10.174;2023-04-24T09:38:06;21.30;34.10
3504;DHT22;1766;53.490;10.174;2023-04-24T09:40:10;21.30;34.30
3504;DHT22;1766;53.490;10.174;2023-04-24T09:42:13;21.40;34.50
3504;DHT22;1766;53.490;10.174;2023-04-24T09:44:18;21.50;34.30
3504;DHT22;1766;53.490;10.174;2023-04-24T09:46:21;21.50;34.30
3504;DHT22;1766;53.490;10.174;2023-04-24T09:48:30;21.60;34.20
3504;DHT22;1766;53.490;10.174;2023-04-24T09:50:33;21.60;34.10
3504;DHT22;1766;53.490;10.174;2023-04-24T09:52:35;21.60;33.90
3504;DHT22;1766;53.490;10.174;2023-04-24T09:54:38;21.60;33.80
3504;DHT22;1766;53.490;10.174;2023-04-24T09:56:42;21.50;33.70
3504;DHT22;1766;53.490;10.174;2023-04-24T09:58:46;21.50;33.80
3504;DHT22;1766;53.490;10.174;2023-04-24T10:00:49;21.60;33.90
3504;DHT22;1766;53.490;10.174;2023-04-24T10:02:54;21.60;33.80
3504;DHT22;1766;53.490;10.174;2023-04-24T10:04:57;21.60;33.70
3504;DHT22;1766;53.490;10.174;2023-04-24T10:07:03;21.60;33.50
3504;DHT22;1766;53.490;10.174;2023-04-24T10:09:07;21.70;33.50
3504;DHT22;1766;53.490;10.174;2023-04-24T10:11:11;21.80;33.60
3504;DHT22;1766;53.490;10.174;2023-04-24T10:13:14;21.90;33.60
3504;DHT22;1766;53.490;10.174;2023-04-24T10:15:16;22.00;33.50
3504;DHT22;1766;53.490;10.174;2023-04-24T10:17:23;22.00;33.40
3504;DHT22;1766;53.490;10.174;2023-04-24T10:19:26;22.10;33.40
3504;DHT22;1766;53.490;10.174;2023-04-24T10:21:28;22.10;33.20
3504;DHT22;1766;53.490;10.174;2023-04-24T10:23:31;22.20;33.20
3504;DHT22;1766;53.490;10.174;2023-04-24T10:25:35;22.20;33.30
3504;DHT22;1766;53.490;10.174;2023-04-24T10:27:38;22.20;33.20
3504;DHT22;1766;53.490;10.174;2023-04-24T10:29:41;22.20;33.10
3504;DHT22;1766;53.490;10.174;2023-04-24T10:31:45;22.20;33.20
3504;DHT22;1766;53.490;10.174;2023-04-24T10:33:50;22.30;33.00
3504;DHT22;1766;53.490;10.174;2023-04-24T10:35:53;22.10;32.70
3504;DHT22;1766;53.490;10.174;2023-04-24T10:37:58;22.80;33.40
3504;DHT22;1766;53.490;10.174;2023-04-24T10:40:01;22.00;32.90
3504;DHT22;1766;53.490;10.174;2023-04-24T10:42:14;21.90;32.90
3504;DHT22;1766;53.490;10.174;2023-04-24T10:44:16;21.80;33.00
3504;DHT22;1766;53.490;10.174;2023-04-24T10:46:20;21.80;32.90
3504;DHT22;1766;53.490;10.174;2023-04-24T10:48:26;21.70;32.80
3504;DHT22;1766;53.490;10.174;2023-04-24T10:50:44;21.70;32.90
3504;DHT22;1766;53.490;10.174;2023-04-24T10:52:47;21.60;33.50
3504;DHT22;1766;53.490;10.174;2023-04-24T10:54:51;21.70;33.20
3504;DHT22;1766;53.490;10.174;2023-04-24T10:56:53;21.90;33.10
3504;DHT22;1766;53.490;10.174;2023-04-24T10:59:35;21.90;33.00
3504;DHT22;1766;53.490;10.174;2023-04-24T11:01:38;22.10;32.90
3504;DHT22;1766;53.490;10.174;2023-04-24T11:03:50;22.20;32.70
3504;DHT22;1766;53.490;10.174;2023-04-24T11:06:00;22.10;32.70
3504;DHT22;1766;53.490;10.174;2023-04-24T11:08:10;22.30;32.80
3504;DHT22;1766;53.490;10.174;2023-04-24T11:10:25;22.30;32.70
3504;DHT22;1766;53.490;10.174;2023-04-24T11:12:27;22.20;32.40
3504;DHT22;1766;53.490;10.174;2023-04-24T11:14:29;22.40;32.50
3504;DHT22;1766;53.490;10.174;2023-04-24T11:16:33;22.60;32.70
3504;DHT22;1766;53.490;10.174;2023-04-24T11:18:37;22.70;32.50
3504;DHT22;1766;53.490;10.174;2023-04-24T11:20:42;22.90;32.20
3504;DHT22;1766;53.490;10.174;2023-04-24T11:22:46;23.00;31.90
3504;DHT22;1766;53.490;10.174;2023-04-24T11:24:49;23.10;31.60
3504;DHT22;1766;53.490;10.174;2023-04-24T11:26:56;23.10;31.40
3504;DHT22;1766;53.490;10.174;2023-04-24T11:29:07;23.10;31.20
3504;DHT22;1766;53.490;10.174;2023-04-24T11:33:41;23.20;31.00
3504;DHT22;1766;53.490;10.174;2023-04-24T11:35:43;23.30;30.80
3504;DHT22;1766;53.490;10.174;2023-04-24T11:37:48;23.40;30.80
3504;DHT22;1766;53.490;10.174;2023-04-24T11:39:52;23.50;30.60
3504;DHT22;1766;53.490;10.174;2023-04-24T11:42:02;23.50;30.50
3504;DHT22;1766;53.490;10.174;2023-04-24T11:44:07;23.50;30.50
3504;DHT22;1766;53.490;10.174;2023-04-24T11:46:10;23.40;30.20
3504;DHT22;1766;53.490;10.174;2023-04-24T11:48:12;23.20;30.10
3504;DHT22;1766;53.490;10.174;2023-04-24T11:50:15;23.10;30.10
3504;DHT22;1766;53.490;10.174;2023-04-24T11:52:18;23.00;30.20
3504;DHT22;1766;53.490;10.174;2023-04-24T11:54:22;22.90;30.10
3504;DHT22;1766;53.490;10.174;2023-04-24T11:56:26;22.70;30.00
3504;DHT22;1766;53.490;10.174;2023-04-24T11:58:28;22.70;29.40
3504;DHT22;1766;53.490;10.174;2023-04-24T12:00:36;22.90;30.50
3504;DHT22;1766;53.490;10.174;2023-04-24T12:02:38;24.00;30.50
3504;DHT22;1766;53.490;10.174;2023-04-24T12:04:40;25.30;29.60
3504;DHT22;1766;53.490;10.174;2023-04-24T12:06:58;26.20;28.90
3504;DHT22;1766;53.490;10.174;2023-04-24T12:09:00;27.30;28.00
3504;DHT22;1766;53.490;10.174;2023-04-24T12:11:05;27.80;27.30
3504;DHT22;1766;53.490;10.174;2023-04-24T12:13:09;27.80;26.80
3504;DHT22;1766;53.490;10.174;2023-04-24T12:15:11;27.50;26.50
3504;DHT22;1766;53.490;10.174;2023-04-24T12:17:13;27.00;26.90
3504;DHT22;1766;53.490;10.174;2023-04-24T12:19:18;26.50;27.20
3504;DHT22;1766;53.490;10.174;2023-04-24T12:21:22;26.10;27.30
3504;DHT22;1766;53.490;10.174;2023-04-24T12:23:34;25.80;27.40
3504;DHT22;1766;53.490;10.174;2023-04-24T12:25:38;25.50;27.60
3504;DHT22;1766;53.490;10.174;2023-04-24T12:27:43;25.10;27.80
3504;DHT22;1766;53.490;10.174;2023-04-24T12:29:51;24.80;27.70
3504;DHT22;1766;53.490;10.174;2023-04-24T12:31:54;24.50;27.90
3504;DHT22;1766;53.490;10.174;2023-04-24T12:33:56;24.50;28.60
3504;DHT22;1766;53.490;10.174;2023-04-24T12:35:58;24.30;28.20
3504;DHT22;1766;53.490;10.174;2023-04-24T12:38:05;24.10;28.30
3504;DHT22;1766;53.490;10.174;2023-04-24T12:40:09;23.90;28.40
3504;DHT22;1766;53.490;10.174;2023-04-24T12:42:12;23.70;28.50
3504;DHT22;1766;53.490;10.174;2023-04-24T12:44:15;23.40;28.40
3504;DHT22;1766;53.490;10.174;2023-04-24T12:46:19;23.20;28.60
3504;DHT22;1766;53.490;10.174;2023-04-24T12:48:21;22.90;28.80
3504;DHT22;1766;53.490;10.174;2023-04-24T12:50:23;22.80;29.00
3504;DHT22;1766;53.490;10.174;2023-04-24T12:52:26;22.70;29.30
3504;DHT22;1766;53.490;10.174;2023-04-24T12:54:32;22.60;29.40
3504;DHT22;1766;53.490;10.174;2023-04-24T12:56:40;22.40;29.40
3504;DHT22;1766;53.490;10.174;2023-04-24T12:58:42;22.20;29.50
3504;DHT22;1766;53.490;10.174;2023-04-24T13:00:45;22.10;29.70
3504;DHT22;1766;53.490;10.174;2023-04-24T13:02:47;21.80;29.80
3504;DHT22;1766;53.490;10.174;2023-04-24T13:04:50;21.60;29.90
3504;DHT22;1766;53.490;10.174;2023-04-24T13:06:52;21.50;30.10
3504;DHT22;1766;53.490;10.174;2023-04-24T13:08:54;21.40;30.20
3504;DHT22;1766;53.490;10.174;2023-04-24T13:10:58;21.20;30.30
3504;DHT22;1766;53.490;10.174;2023-04-24T13:13:00;21.20;30.50
3504;DHT22;1766;53.490;10.174;2023-04-24T13:15:02;21.10;30.60
3504;DHT22;1766;53.490;10.174;2023-04-24T13:17:06;21.10;30.90
3504;DHT22;1766;53.490;10.174;2023-04-24T13:19:09;21.00;30.90
3504;DHT22;1766;53.490;10.174;2023-04-24T13:21:11;21.00;31.00
3504;DHT22;1766;53.490;10.174;2023-04-24T13:23:13;20.90;31.10
3504;DHT22;1766;53.490;10.174;2023-04-24T13:25:16;20.90;31.30
3504;DHT22;1766;53.490;10.174;2023-04-24T13:27:18;20.80;31.40
3504;DHT22;1766;53.490;10.174;2023-04-24T13:29:20;20.70;31.60
3504;DHT22;1766;53.490;10.174;2023-04-24T13:31:22;20.60;31.90
3504;DHT22;1766;53.490;10.174;2023-04-24T13:33:25;20.40;32.10
3504;DHT22;1766;53.490;10.174;2023-04-24T13:35:27;20.30;32.60
3504;DHT22;1766;53.490;10.174;2023-04-24T13:37:28;20.30;33.10
3504;DHT22;1766;53.490;10.174;2023-04-24T13:39:30;20.30;33.70
3504;DHT22;1766;53.490;10.174;2023-04-24T13:41:33;20.20;34.10
3504;DHT22;1766;53.490;10.174;2023-04-24T13:43:35;20.20;34.50
3504;DHT22;1766;53.490;10.174;2023-04-24T13:45:39;20.20;34.90
3504;DHT22;1766;53.490;10.174;2023-04-24T13:47:41;20.20;35.10
3504;DHT22;1766;53.490;10.174;2023-04-24T13:49:44;20.10;35.40
3504;DHT22;1766;53.490;10.174;2023-04-24T13:51:46;20.10;35.60
3504;DHT22;1766;53.490;10.174;2023-04-24T13:53:48;20.00;36.00
3504;DHT22;1766;53.490;10.174;2023-04-24T13:55:49;19.90;35.80